Pagrindinis puslapis
METAR-TAF:

METAR-TAF

Oro uostai :

Ha'il, Saudo Arabija

platuma: 27-26N, ilguma: 041-41E, Aukštis: 1015 m

Dabartinis oras

Ataskaita buvo paskelbta 32 minutes, ne 17:00 UTC
Vėjas 8 kt iš Rytų
Temperatūra 28°C
Drėgmė 20%
Slėgis 1021 hPa
Matomumas 10 km arba daugiau
Išsisklaidę debesys ne aukštis 4000 ft

METAR: OEHL 171700Z 10008KT 9999 SCT040 28/03 Q1021

Laikas: 20:32 (17:32 UTC)

Prognozė

Ataskaita buvo paskelbta 6 valandos ir 32 minutes, ne 11:00 UTC
Prognozė galioja nuo 17 metu 12 UTC su 18 metu 18 UTC
Vėjas 15 kt iš Pietų
Matomumas: 7000 m
Mažai debesys ne aukštis 4000 ft
Išsisklaidę debesys ne aukštis 8000 ft
Laikinai
nuo 17 metu 12 UTC su 17 metu 18 UTC
Mažai debesys ne aukštis 3500 ft, Liūtiniai kamuoliniai debesys.
Tapsmas
nuo 17 metu 14 UTC su 17 metu 16 UTC
Vėjas 14 kt iš Vakarų/Pietvakarių

TAF: OEHL 171100Z 1712/1818 17015KT 7000 FEW040 SCT080 TEMPO 1712/1718 FEW035CB BECMG 1714/1716 25014KT

Orai ataskaitas ir orų prognozės (METAR, TAF).

turimą stotys yra geltonos ir raudonos taškus žemėlapyje.

Perkelti pele per norėdami pamatyti stoties vardą.

Tada spustelėkite, norėdami matyti oro stebėjimo ir prognozės.

Norėdami pakeisti žemėlapį: spustelėkite ant žalios mygtukų su juodo kryžiaus žemyn,; žalią mygtuką su brūkšneliu, jei norite nutolinti; arba žalių rodyklių gretimoms žemėlapius.


METAR-TAF: